EZY9066 EIDL-EGGP
Flight info
| Callsign | EZY9066 |
|---|---|
| Flight time | 0h 30m |
| Altitude | 27000 |
| Route | DCT LISBO DCT NUMPI DCT PENIL PENIL1L |
| Aircraft | A320/M-SDE3FGHIRWY/LB1 |
Departure
| Time | 2026-05-07 07:31 |
|---|---|
| Airport | Donegal Airport (EIDL) |
Arrival
| Time | 2026-05-07 08:01 |
|---|---|
| Airport | Liverpool John Lennon Airport (EGGP) |
| Time | Latitude | Longitude | Altitude | Speed | Heading |
|---|---|---|---|---|---|
| 2026-05-07 07:26 | 55.03851 | -8.34231 | 33 ft | 0 kts | 199° |
| 2026-05-07 07:27 | 55.03851 | -8.34240 | 32 ft | 3 kts | 251° |
| 2026-05-07 07:27 | 55.03856 | -8.34295 | 33 ft | 5 kts | 288° |
| 2026-05-07 07:28 | 55.03907 | -8.34420 | 34 ft | 16 kts | 343° |
| 2026-05-07 07:28 | 55.03967 | -8.34388 | 36 ft | 7 kts | 19° |
| 2026-05-07 07:28 | 55.04064 | -8.34325 | 35 ft | 29 kts | 19° |
| 2026-05-07 07:28 | 55.04344 | -8.34149 | 32 ft | 50 kts | 20° |
| 2026-05-07 07:29 | 55.04614 | -8.33968 | 38 ft | 27 kts | 20° |
| 2026-05-07 07:29 | 55.04801 | -8.33852 | 34 ft | 30 kts | 20° |
| 2026-05-07 07:29 | 55.04983 | -8.33740 | 32 ft | 14 kts | 0° |
| 2026-05-07 07:29 | 55.05042 | -8.33692 | 31 ft | 4 kts | 104° |
| 2026-05-07 07:30 | 55.05025 | -8.33696 | 32 ft | 5 kts | 203° |
| 2026-05-07 07:30 | 55.04972 | -8.33742 | 31 ft | 10 kts | 199° |
| 2026-05-07 07:30 | 55.04901 | -8.33785 | 32 ft | 11 kts | 199° |
| 2026-05-07 07:30 | 55.04810 | -8.33846 | 35 ft | 33 kts | 202° |
| 2026-05-07 07:31 | 55.04311 | -8.34170 | 34 ft | 117 kts | 201° |
| 2026-05-07 07:31 | 55.03465 | -8.34708 | 694 ft | 121 kts | 201° |
| 2026-05-07 07:31 | 55.02746 | -8.35178 | 1526 ft | 117 kts | 202° |
| 2026-05-07 07:31 | 55.01743 | -8.35428 | 1412 ft | 164 kts | 179° |
| 2026-05-07 07:32 | 55.00630 | -8.34549 | 1782 ft | 199 kts | 137° |
| 2026-05-07 07:32 | 54.99963 | -8.32214 | 2156 ft | 232 kts | 114° |
| 2026-05-07 07:32 | 54.99443 | -8.29430 | 2646 ft | 252 kts | 112° |
| 2026-05-07 07:32 | 54.98898 | -8.26420 | 3312 ft | 266 kts | 114° |
| 2026-05-07 07:33 | 54.97976 | -8.23671 | 4202 ft | 263 kts | 134° |
| 2026-05-07 07:33 | 54.96771 | -8.21326 | 5152 ft | 265 kts | 137° |
| 2026-05-07 07:33 | 54.95496 | -8.18980 | 6052 ft | 269 kts | 137° |
| 2026-05-07 07:33 | 54.94184 | -8.16625 | 6894 ft | 274 kts | 138° |
| 2026-05-07 07:34 | 54.92848 | -8.14234 | 7726 ft | 277 kts | 138° |
| 2026-05-07 07:34 | 54.91501 | -8.11804 | 8580 ft | 281 kts | 138° |
| 2026-05-07 07:34 | 54.90201 | -8.09226 | 9418 ft | 289 kts | 127° |
| 2026-05-07 07:34 | 54.89389 | -8.05957 | 10182 ft | 301 kts | 111° |
| 2026-05-07 07:35 | 54.88726 | -8.02345 | 10448 ft | 325 kts | 111° |
| 2026-05-07 07:35 | 54.88035 | -7.98469 | 10848 ft | 342 kts | 110° |
| 2026-05-07 07:35 | 54.87332 | -7.94474 | 11553 ft | 348 kts | 110° |
| 2026-05-07 07:35 | 54.86624 | -7.90433 | 12322 ft | 352 kts | 110° |
| 2026-05-07 07:36 | 54.85906 | -7.86354 | 13110 ft | 355 kts | 110° |
| 2026-05-07 07:36 | 54.85173 | -7.82232 | 13863 ft | 359 kts | 110° |
| 2026-05-07 07:36 | 54.84426 | -7.78075 | 14510 ft | 363 kts | 110° |
| 2026-05-07 07:36 | 54.83667 | -7.73870 | 15141 ft | 367 kts | 110° |
| 2026-05-07 07:37 | 54.82907 | -7.69669 | 15759 ft | 372 kts | 111° |
| 2026-05-07 07:37 | 54.82126 | -7.65365 | 16374 ft | 376 kts | 111° |
| 2026-05-07 07:37 | 54.81330 | -7.61009 | 17001 ft | 381 kts | 111° |
| 2026-05-07 07:37 | 54.80525 | -7.56605 | 17624 ft | 385 kts | 111° |
| 2026-05-07 07:38 | 54.79712 | -7.52145 | 18244 ft | 389 kts | 111° |
| 2026-05-07 07:38 | 54.78891 | -7.47652 | 18786 ft | 393 kts | 111° |
| 2026-05-07 07:38 | 54.78061 | -7.43124 | 19346 ft | 396 kts | 111° |
| 2026-05-07 07:38 | 54.77244 | -7.38669 | 19967 ft | 397 kts | 111° |
| 2026-05-07 07:39 | 54.76401 | -7.34107 | 20585 ft | 399 kts | 111° |
| 2026-05-07 07:39 | 54.75550 | -7.29526 | 20858 ft | 400 kts | 111° |
| 2026-05-07 07:39 | 54.74699 | -7.24939 | 20927 ft | 400 kts | 111° |
| 2026-05-07 07:39 | 54.73851 | -7.20360 | 20933 ft | 399 kts | 111° |
| 2026-05-07 07:40 | 54.73000 | -7.15772 | 20936 ft | 399 kts | 111° |
| 2026-05-07 07:40 | 54.72162 | -7.11268 | 20937 ft | 399 kts | 111° |
| 2026-05-07 07:40 | 54.71305 | -7.06692 | 20936 ft | 399 kts | 111° |
| 2026-05-07 07:40 | 54.70445 | -7.02123 | 20928 ft | 399 kts | 110° |
| 2026-05-07 07:41 | 54.69583 | -6.97566 | 20942 ft | 399 kts | 111° |
| 2026-05-07 07:41 | 54.68721 | -6.93012 | 20943 ft | 399 kts | 111° |
| 2026-05-07 07:41 | 54.67859 | -6.88453 | 20948 ft | 399 kts | 111° |
| 2026-05-07 07:41 | 54.66994 | -6.83895 | 20946 ft | 399 kts | 111° |
| 2026-05-07 07:42 | 54.66129 | -6.79347 | 20950 ft | 399 kts | 111° |
| 2026-05-07 07:42 | 54.65262 | -6.74799 | 20947 ft | 399 kts | 111° |
| 2026-05-07 07:42 | 54.64392 | -6.70247 | 20947 ft | 399 kts | 111° |
| 2026-05-07 07:42 | 54.63522 | -6.65704 | 20952 ft | 399 kts | 111° |
| 2026-05-07 07:43 | 54.62649 | -6.61162 | 20950 ft | 399 kts | 111° |
| 2026-05-07 07:43 | 54.61775 | -6.56616 | 20950 ft | 399 kts | 111° |
| 2026-05-07 07:43 | 54.60899 | -6.52074 | 20969 ft | 399 kts | 111° |
| 2026-05-07 07:43 | 54.60022 | -6.47537 | 20972 ft | 399 kts | 111° |
| 2026-05-07 07:44 | 54.59146 | -6.43006 | 20970 ft | 399 kts | 111° |
| 2026-05-07 07:44 | 54.58280 | -6.38526 | 20957 ft | 399 kts | 110° |
| 2026-05-07 07:44 | 54.57405 | -6.34007 | 20976 ft | 397 kts | 111° |
| 2026-05-07 07:44 | 54.55798 | -6.25759 | 20953 ft | 387 kts | 111° |
| 2026-05-07 07:45 | 54.54102 | -6.17148 | 20619 ft | 365 kts | 111° |
| 2026-05-07 07:45 | 54.51863 | -6.09507 | 19830 ft | 354 kts | 130° |
| 2026-05-07 07:45 | 54.48488 | -6.03702 | 19029 ft | 344 kts | 146° |
| 2026-05-07 07:45 | 54.44694 | -5.98745 | 18235 ft | 341 kts | 146° |
| 2026-05-07 07:46 | 54.40948 | -5.93818 | 17365 ft | 337 kts | 146° |
| 2026-05-07 07:46 | 54.37250 | -5.88962 | 16561 ft | 333 kts | 146° |
| 2026-05-07 07:46 | 54.33576 | -5.84153 | 15779 ft | 329 kts | 146° |
| 2026-05-07 07:46 | 54.29958 | -5.79434 | 15033 ft | 325 kts | 146° |
| 2026-05-07 07:47 | 54.26365 | -5.74762 | 14335 ft | 322 kts | 146° |
| 2026-05-07 07:47 | 54.22806 | -5.70149 | 13599 ft | 319 kts | 146° |
| 2026-05-07 07:47 | 54.19290 | -5.65602 | 12829 ft | 314 kts | 146° |
| 2026-05-07 07:47 | 54.15957 | -5.60850 | 12074 ft | 312 kts | 136° |
| 2026-05-07 07:48 | 54.13367 | -5.54941 | 11315 ft | 311 kts | 122° |
| 2026-05-07 07:48 | 54.11573 | -5.48387 | 10967 ft | 307 kts | 116° |
| 2026-05-07 07:48 | 54.09807 | -5.41696 | 10980 ft | 310 kts | 117° |
| 2026-05-07 07:48 | 54.08030 | -5.34996 | 10983 ft | 310 kts | 117° |
| 2026-05-07 07:49 | 54.06252 | -5.28291 | 10974 ft | 309 kts | 117° |
| 2026-05-07 07:49 | 54.04485 | -5.21669 | 10264 ft | 306 kts | 118° |
| 2026-05-07 07:49 | 54.02747 | -5.15190 | 9753 ft | 292 kts | 118° |
| 2026-05-07 07:49 | 54.01099 | -5.09030 | 9092 ft | 283 kts | 118° |
| 2026-05-07 07:50 | 53.99479 | -5.03005 | 8996 ft | 282 kts | 118° |
| 2026-05-07 07:50 | 53.97841 | -4.96938 | 8991 ft | 283 kts | 118° |
| 2026-05-07 07:50 | 53.96198 | -4.90861 | 8991 ft | 283 kts | 118° |
| 2026-05-07 07:50 | 53.93743 | -4.81819 | 8994 ft | 283 kts | 118° |
| 2026-05-07 07:51 | 53.90439 | -4.69707 | 8967 ft | 284 kts | 118° |
| 2026-05-07 07:51 | 53.87112 | -4.57506 | 8997 ft | 283 kts | 118° |
| 2026-05-07 07:51 | 53.83769 | -4.45354 | 9041 ft | 284 kts | 118° |
| 2026-05-07 07:51 | 53.80411 | -4.33226 | 9053 ft | 287 kts | 118° |
| 2026-05-07 07:52 | 53.78189 | -4.25221 | 8456 ft | 281 kts | 118° |
| 2026-05-07 07:52 | 53.74893 | -4.13403 | 6814 ft | 275 kts | 118° |
| 2026-05-07 07:52 | 53.71730 | -4.02085 | 5985 ft | 248 kts | 118° |
| 2026-05-07 07:52 | 53.67469 | -3.87006 | 6068 ft | 263 kts | 118° |
| 2026-05-07 07:53 | 53.64278 | -3.75780 | 5997 ft | 237 kts | 118° |
| 2026-05-07 07:53 | 53.61449 | -3.66421 | 6071 ft | 244 kts | 129° |
| 2026-05-07 07:53 | 53.58414 | -3.61180 | 5977 ft | 214 kts | 139° |
| 2026-05-07 07:53 | 53.53774 | -3.53692 | 5951 ft | 231 kts | 138° |
| 2026-05-07 07:54 | 53.49230 | -3.46365 | 5970 ft | 243 kts | 138° |
| 2026-05-07 07:54 | 53.47336 | -3.41619 | 6017 ft | 226 kts | 118° |
| 2026-05-07 07:54 | 53.46650 | -3.39205 | 5777 ft | 231 kts | 118° |
| 2026-05-07 07:54 | 53.45953 | -3.36778 | 5395 ft | 231 kts | 118° |
| 2026-05-07 07:55 | 53.45253 | -3.34353 | 5057 ft | 230 kts | 118° |
| 2026-05-07 07:55 | 53.44558 | -3.31949 | 4735 ft | 228 kts | 119° |
| 2026-05-07 07:55 | 53.43844 | -3.29580 | 4396 ft | 226 kts | 126° |
| 2026-05-07 07:55 | 53.42708 | -3.27893 | 4076 ft | 215 kts | 158° |
| 2026-05-07 07:56 | 53.41324 | -3.27002 | 3767 ft | 214 kts | 164° |
| 2026-05-07 07:56 | 53.39908 | -3.26235 | 3395 ft | 214 kts | 165° |
| 2026-05-07 07:56 | 53.38488 | -3.25483 | 3086 ft | 212 kts | 165° |
| 2026-05-07 07:56 | 53.37087 | -3.24732 | 3021 ft | 212 kts | 161° |
| 2026-05-07 07:57 | 53.35888 | -3.23295 | 2997 ft | 218 kts | 133° |
| 2026-05-07 07:57 | 53.35021 | -3.21245 | 2676 ft | 218 kts | 126° |
| 2026-05-07 07:57 | 53.34226 | -3.19102 | 2523 ft | 217 kts | 125° |
| 2026-05-07 07:57 | 53.33437 | -3.16937 | 2524 ft | 219 kts | 125° |
| 2026-05-07 07:58 | 53.32643 | -3.14754 | 2527 ft | 220 kts | 124° |
| 2026-05-07 07:58 | 53.32129 | -3.12326 | 2529 ft | 225 kts | 98° |
| 2026-05-07 07:58 | 53.32178 | -3.09701 | 2533 ft | 227 kts | 88° |
| 2026-05-07 07:58 | 53.32313 | -3.07145 | 2485 ft | 214 kts | 89° |
| 2026-05-07 07:59 | 53.32435 | -3.04718 | 2283 ft | 206 kts | 90° |
| 2026-05-07 07:59 | 53.32548 | -3.02358 | 1996 ft | 199 kts | 90° |
| 2026-05-07 07:59 | 53.32656 | -3.00128 | 1738 ft | 186 kts | 90° |
| 2026-05-07 07:59 | 53.32755 | -2.98042 | 1487 ft | 174 kts | 91° |
| 2026-05-07 08:00 | 53.32847 | -2.96097 | 1247 ft | 165 kts | 91° |
| 2026-05-07 08:00 | 53.32934 | -2.94245 | 1024 ft | 155 kts | 91° |
| 2026-05-07 08:00 | 53.33015 | -2.92512 | 819 ft | 144 kts | 88° |
| 2026-05-07 08:00 | 53.33091 | -2.90889 | 621 ft | 136 kts | 91° |
| 2026-05-07 08:01 | 53.33164 | -2.89306 | 432 ft | 136 kts | 90° |
| 2026-05-07 08:01 | 53.33236 | -2.87751 | 254 ft | 134 kts | 90° |
| 2026-05-07 08:01 | 53.33308 | -2.86199 | 104 ft | 130 kts | 86° |
| 2026-05-07 08:01 | 53.33359 | -2.85054 | 94 ft | 33 kts | 85° |
| 2026-05-07 08:02 | 53.33370 | -2.84838 | 94 ft | 19 kts | 84° |
| 2026-05-07 08:02 | 53.33396 | -2.84603 | 96 ft | 21 kts | 69° |
| 2026-05-07 08:02 | 53.33471 | -2.84383 | 94 ft | 22 kts | 59° |
| 2026-05-07 08:02 | 53.33541 | -2.84254 | 95 ft | 9 kts | 2° |
| 2026-05-07 08:03 | 53.33560 | -2.84302 | 95 ft | 4 kts | 268° |
| 2026-05-07 08:03 | 53.33558 | -2.84330 | 94 ft | 3 kts | 265° |
| 2026-05-07 08:03 | 53.33564 | -2.84224 | 94 ft | 15 kts | 265° |
| 2026-05-07 08:03 | 53.33574 | -2.84036 | 93 ft | 0 kts | 265° |
| 2026-05-07 08:04 | 53.33570 | -2.84098 | 94 ft | 9 kts | 265° |
| 2026-05-07 08:04 | 53.33565 | -2.84193 | 94 ft | 8 kts | 265° |
| 2026-05-07 08:04 | 53.33561 | -2.84275 | 94 ft | 6 kts | 265° |
| 2026-05-07 08:04 | 53.33557 | -2.84348 | 96 ft | 7 kts | 265° |
| 2026-05-07 08:05 | 53.33551 | -2.84465 | 94 ft | 14 kts | 265° |
| 2026-05-07 08:05 | 53.33545 | -2.84629 | 94 ft | 13 kts | 267° |
| 2026-05-07 08:05 | 53.33539 | -2.84775 | 98 ft | 12 kts | 265° |
| 2026-05-07 08:05 | 53.33532 | -2.84905 | 97 ft | 11 kts | 265° |
| 2026-05-07 08:06 | 53.33538 | -2.85040 | 94 ft | 8 kts | 307° |
| 2026-05-07 08:06 | 53.33540 | -2.85043 | 95 ft | 0 kts | 309° |
| 2026-05-07 08:06 | 53.33530 | -2.85130 | 94 ft | 14 kts | 258° |
| 2026-05-07 08:06 | 53.33516 | -2.85282 | 94 ft | 12 kts | 265° |
| 2026-05-07 08:07 | 53.33509 | -2.85417 | 96 ft | 11 kts | 265° |
| 2026-05-07 08:07 | 53.33534 | -2.85507 | 98 ft | 9 kts | 347° |
| 2026-05-07 08:07 | 53.33576 | -2.85478 | 94 ft | 6 kts | 73° |
| 2026-05-07 08:07 | 53.33578 | -2.85433 | 94 ft | 1 kts | 85° |
| 2026-05-07 08:08 | 53.33579 | -2.85413 | 94 ft | 0 kts | 85° |